createdAt,value
2022-11-09T00:01:02.632Z,100292.44
2022-11-09T00:04:06.633Z,100291.13
2022-11-09T00:07:10.506Z,100284.94
2022-11-09T00:10:13.134Z,100286.00
2022-11-09T00:13:15.787Z,100285.84
2022-11-09T00:16:20.157Z,100288.66
2022-11-09T00:19:22.649Z,100284.94
2022-11-09T00:22:26.489Z,100285.91
2022-11-09T00:25:29.001Z,100280.09
2022-11-09T00:28:31.675Z,100282.31
2022-11-09T00:31:34.181Z,100277.22
2022-11-09T00:34:36.680Z,100278.56
2022-11-09T00:37:40.571Z,100269.44
2022-11-09T00:40:43.068Z,100270.56
2022-11-09T00:43:45.705Z,100273.97
2022-11-09T00:46:48.347Z,100266.44
2022-11-09T00:49:50.847Z,100268.34
2022-11-09T00:52:54.718Z,100262.41
2022-11-09T00:55:58.315Z,100260.06
2022-11-09T00:59:00.804Z,100257.00
2022-11-09T01:02:03.307Z,100256.28
2022-11-09T01:05:06.630Z,100257.81
2022-11-09T01:08:10.647Z,100253.44
2022-11-09T01:11:14.125Z,100256.28
2022-11-09T01:14:16.683Z,100252.00
2022-11-09T01:17:19.213Z,100254.50
2022-11-09T01:20:21.894Z,100251.16
2022-11-09T01:23:25.743Z,100255.53
2022-11-09T01:26:28.555Z,100244.69
2022-11-09T01:29:31.068Z,100248.59
2022-11-09T01:32:33.923Z,100242.81
2022-11-09T01:35:38.218Z,100248.31
2022-11-09T01:38:42.200Z,100239.34
2022-11-09T01:41:44.759Z,100230.97
2022-11-09T01:44:47.235Z,100232.09
2022-11-09T01:47:53.714Z,100234.81
2022-11-09T01:51:00.282Z,100236.44
2022-11-09T01:54:07.795Z,100229.25
2022-11-09T01:57:13.970Z,100228.28
2022-11-09T02:00:18.588Z,100222.94
2022-11-09T02:03:26.283Z,100228.41
2022-11-09T02:06:31.407Z,100225.72
2022-11-09T02:09:41.815Z,100235.06
2022-11-09T02:12:45.695Z,100230.44
2022-11-09T02:15:49.604Z,100230.97
2022-11-09T02:18:54.064Z,100226.81
2022-11-09T02:21:58.363Z,100214.72
2022-11-09T02:25:00.918Z,100210.41
2022-11-09T02:28:03.706Z,100216.50
2022-11-09T02:31:09.154Z,100210.56
2022-11-09T02:34:15.333Z,100216.38
2022-11-09T02:37:27.668Z,100222.38
2022-11-09T02:40:36.535Z,100220.84
2022-11-09T02:43:39.027Z,100225.41
2022-11-09T02:46:41.535Z,100221.19
2022-11-09T02:49:44.080Z,100220.00
2022-11-09T02:52:47.953Z,100221.00
2022-11-09T02:55:50.444Z,100220.34
2022-11-09T02:58:52.972Z,100226.00
2022-11-09T03:01:55.472Z,100229.06
2022-11-09T03:04:57.963Z,100226.75
2022-11-09T03:08:02.360Z,100228.06
2022-11-09T03:11:06.065Z,100224.25
2022-11-09T03:14:09.702Z,100232.66
2022-11-09T03:17:14.008Z,100230.06
2022-11-09T03:20:16.597Z,100215.91
2022-11-09T03:23:20.687Z,100226.47
2022-11-09T03:26:23.966Z,100226.38
2022-11-09T03:29:26.478Z,100225.81
2022-11-09T03:32:28.969Z,100228.97
2022-11-09T03:35:31.544Z,100231.25
2022-11-09T03:38:35.392Z,100233.28
2022-11-09T03:41:37.869Z,100239.69
2022-11-09T03:44:40.369Z,100233.22
2022-11-09T03:47:43.091Z,100231.34
2022-11-09T03:50:45.708Z,100231.69
2022-11-09T03:53:49.551Z,100219.94
2022-11-09T03:56:52.072Z,100223.63
2022-11-09T03:59:54.574Z,100222.75
2022-11-09T04:02:57.354Z,100232.09
2022-11-09T04:05:59.948Z,100225.16
2022-11-09T04:09:04.253Z,100226.19
2022-11-09T04:12:06.945Z,100225.34
2022-11-09T04:15:10.189Z,100221.72
2022-11-09T04:18:15.315Z,100213.13
2022-11-09T04:21:22.761Z,100215.44
2022-11-09T04:24:27.660Z,100224.88
2022-11-09T04:27:30.579Z,100219.72
2022-11-09T04:30:35.321Z,100221.44
2022-11-09T04:33:37.812Z,100226.75
2022-11-09T04:36:40.329Z,100221.56
2022-11-09T04:39:44.160Z,100223.56
2022-11-09T04:42:46.697Z,100211.09
2022-11-09T04:45:49.197Z,100217.38
2022-11-09T04:48:51.756Z,100211.88
2022-11-09T04:51:54.232Z,100216.16
2022-11-09T04:54:58.069Z,100214.16
2022-11-09T04:58:00.600Z,100210.63
2022-11-09T05:01:04.279Z,100211.75
2022-11-09T05:04:06.827Z,100200.16
2022-11-09T05:07:09.414Z,100217.41
2022-11-09T05:10:13.285Z,100221.81
2022-11-09T05:13:16.650Z,100217.34
2022-11-09T05:16:19.732Z,100235.72
2022-11-09T05:19:22.248Z,100235.44
2022-11-09T05:22:42.314Z,100236.69
2022-11-09T05:25:46.581Z,100231.53
2022-11-09T05:28:49.089Z,100230.56
2022-11-09T05:31:52.605Z,100228.69
2022-11-09T05:34:55.162Z,100237.44
2022-11-09T05:37:57.671Z,100231.63
2022-11-09T05:41:01.534Z,100228.00
2022-11-09T05:44:04.095Z,100226.13
2022-11-09T05:47:06.655Z,100214.97
2022-11-09T05:50:11.558Z,100226.19
2022-11-09T05:53:14.094Z,100219.53
2022-11-09T05:56:17.973Z,100218.38
2022-11-09T05:59:20.456Z,100214.00
2022-11-09T06:02:23.358Z,100229.66
2022-11-09T06:05:25.890Z,100224.66
2022-11-09T06:08:28.488Z,100215.13
2022-11-09T06:11:32.300Z,100217.28
2022-11-09T06:14:34.814Z,100220.06
2022-11-09T06:17:37.316Z,100220.50
2022-11-09T06:20:39.808Z,100220.13
2022-11-09T06:23:42.350Z,100216.31
2022-11-09T06:26:46.295Z,100232.09
2022-11-09T06:29:48.778Z,100239.75
2022-11-09T06:32:51.291Z,100242.41
2022-11-09T06:35:56.512Z,100242.03
2022-11-09T06:38:59.227Z,100250.41
2022-11-09T06:42:03.191Z,100251.94
2022-11-09T06:45:06.284Z,100260.91
2022-11-09T06:48:10.567Z,100256.91
2022-11-09T06:51:13.116Z,100267.06
2022-11-09T06:54:15.628Z,100270.03
2022-11-09T06:57:19.524Z,100275.44
2022-11-09T07:00:22.923Z,100277.19
2022-11-09T07:03:25.596Z,100291.09
2022-11-09T07:06:28.154Z,100294.97
2022-11-09T07:09:30.691Z,100297.56
2022-11-09T07:12:35.593Z,100296.72
2022-11-09T07:15:39.323Z,100300.50
2022-11-09T07:18:41.829Z,100302.50
2022-11-09T07:21:44.351Z,100300.19
2022-11-09T07:24:47.004Z,100294.41
2022-11-09T07:27:51.726Z,100302.63
2022-11-09T07:30:54.400Z,100302.44
2022-11-09T07:33:58.298Z,100296.31
2022-11-09T07:37:00.891Z,100293.72
2022-11-09T07:40:03.714Z,100292.91
2022-11-09T07:43:07.843Z,100303.75
2022-11-09T07:46:10.345Z,100297.63
2022-11-09T07:49:13.812Z,100305.44
2022-11-09T07:52:16.338Z,100294.88
2022-11-09T07:55:18.868Z,100310.63
2022-11-09T07:58:22.689Z,100318.50
2022-11-09T08:01:25.221Z,100317.53
2022-11-09T08:04:27.905Z,100316.50
2022-11-09T08:07:30.548Z,100320.13
2022-11-09T08:10:34.544Z,100320.88
2022-11-09T08:13:38.516Z,100324.50
2022-11-09T08:16:41.075Z,100322.06
2022-11-09T08:19:43.594Z,100325.34
2022-11-09T08:22:47.212Z,100329.66
2022-11-09T08:25:50.217Z,100320.69
2022-11-09T08:28:54.058Z,100320.13
2022-11-09T08:31:56.592Z,100315.72
2022-11-09T08:34:59.097Z,100329.75
2022-11-09T08:38:03.238Z,100328.69
2022-11-09T08:41:10.591Z,100321.34
2022-11-09T08:44:16.979Z,100322.19
2022-11-09T08:47:19.509Z,100322.97
2022-11-09T08:50:22.011Z,100318.03
2022-11-09T08:53:25.036Z,100326.78
2022-11-09T08:56:27.539Z,100321.59
2022-11-09T08:59:31.379Z,100327.28
2022-11-09T09:02:33.973Z,100334.88
2022-11-09T09:05:37.484Z,100333.03
2022-11-09T09:08:39.995Z,100338.09
2022-11-09T09:11:42.642Z,100341.78
2022-11-09T09:14:46.667Z,100344.84
2022-11-09T09:17:49.340Z,100344.69
2022-11-09T09:20:51.863Z,100350.78
2022-11-09T09:23:55.326Z,100354.38
2022-11-09T09:26:57.805Z,100355.47
2022-11-09T09:30:01.713Z,100348.63
2022-11-09T09:33:04.243Z,100354.41
2022-11-09T09:36:07.167Z,100355.56
2022-11-09T09:39:09.821Z,100355.31
2022-11-09T09:42:17.320Z,100357.00
2022-11-09T09:45:24.751Z,100357.16
2022-11-09T09:48:46.255Z,100364.34
2022-11-09T09:51:53.451Z,100360.44
2022-11-09T09:55:01.445Z,100367.28
2022-11-09T09:58:07.684Z,100374.06
2022-11-09T10:01:17.083Z,100368.78
2022-11-09T10:04:22.562Z,100388.38
2022-11-09T10:07:30.680Z,100375.66
2022-11-09T10:10:44.380Z,100375.72
2022-11-09T10:14:10.813Z,100365.69
2022-11-09T10:17:23.997Z,100364.16
2022-11-09T10:20:41.052Z,100366.22
2022-11-09T10:24:01.223Z,100364.41
2022-11-09T10:27:18.800Z,100360.53
2022-11-09T10:30:23.080Z,100380.16
2022-11-09T10:33:29.202Z,100369.91
2022-11-09T10:36:34.611Z,100378.09
2022-11-09T10:39:43.249Z,100360.91
2022-11-09T10:42:49.987Z,100360.06
2022-11-09T10:46:01.051Z,100355.81
2022-11-09T10:49:20.774Z,100357.59
2022-11-09T10:52:43.033Z,100363.25
2022-11-09T10:55:54.711Z,100350.75
2022-11-09T10:58:57.260Z,100367.56
2022-11-09T11:02:02.403Z,100355.53
2022-11-09T11:05:29.142Z,100362.16
2022-11-09T11:08:38.679Z,100356.97
2022-11-09T11:11:41.280Z,100339.41
2022-11-09T11:14:45.744Z,100347.56
2022-11-09T11:17:48.553Z,100341.66
2022-11-09T11:21:17.467Z,100340.31
2022-11-09T11:24:21.787Z,100347.88
2022-11-09T11:27:29.739Z,100352.28
2022-11-09T11:30:36.132Z,100347.41
2022-11-09T11:33:38.632Z,100359.38
2022-11-09T11:36:56.330Z,100362.97
2022-11-09T11:40:02.810Z,100356.66
2022-11-09T11:43:23.743Z,100352.59
2022-11-09T11:46:33.869Z,100349.72
2022-11-09T11:50:02.225Z,100361.59
2022-11-09T11:53:14.253Z,100358.53
2022-11-09T11:56:24.027Z,100351.69
2022-11-09T11:59:55.754Z,100360.25
2022-11-09T12:03:16.301Z,100365.84
2022-11-09T12:06:33.175Z,100351.81
2022-11-09T12:10:01.248Z,100358.13
2022-11-09T12:13:12.106Z,100360.03
2022-11-09T12:16:25.719Z,100350.06
2022-11-09T12:19:57.034Z,100360.84
2022-11-09T12:23:17.002Z,100352.66
2022-11-09T12:26:33.821Z,100348.63
2022-11-09T12:29:40.870Z,100351.00
2022-11-09T12:32:52.191Z,100357.66
2022-11-09T12:35:59.354Z,100345.00
2022-11-09T12:39:11.925Z,100349.28
2022-11-09T12:42:21.249Z,100354.22
2022-11-09T12:45:28.879Z,100351.81
2022-11-09T12:48:34.621Z,100358.53
2022-11-09T12:51:38.460Z,100356.06
2022-11-09T12:54:45.046Z,100354.97
2022-11-09T12:57:49.387Z,100352.75
2022-11-09T13:00:55.457Z,100364.75
2022-11-09T13:03:59.791Z,100363.47
2022-11-09T13:07:29.052Z,100350.34
2022-11-09T13:10:34.356Z,100348.66
2022-11-09T13:13:38.444Z,100353.03
2022-11-09T13:16:41.080Z,100367.44
2022-11-09T13:19:52.330Z,100361.75
2022-11-09T13:23:00.654Z,100362.31
2022-11-09T13:26:04.362Z,100361.72
2022-11-09T13:29:23.597Z,100361.00
2022-11-09T13:32:28.003Z,100359.50
2022-11-09T13:36:00.085Z,100358.03
2022-11-09T13:39:32.026Z,100360.84
2022-11-09T13:42:37.060Z,100371.13
2022-11-09T13:45:44.267Z,100367.66
2022-11-09T13:48:48.413Z,100377.53
2022-11-09T13:51:51.089Z,100372.81
2022-11-09T13:54:55.197Z,100384.91
2022-11-09T13:58:03.269Z,100381.59
2022-11-09T14:01:07.273Z,100393.13
2022-11-09T14:04:21.425Z,100393.19
2022-11-09T14:07:27.135Z,100388.28
2022-11-09T14:10:45.101Z,100385.38
2022-11-09T14:14:09.410Z,100389.19
2022-11-09T14:17:21.659Z,100390.75
2022-11-09T14:20:32.329Z,100390.78
2022-11-09T14:23:35.635Z,100402.16
2022-11-09T14:26:38.296Z,100397.16
2022-11-09T14:29:50.442Z,100399.78
2022-11-09T14:32:56.234Z,100403.03
2022-11-09T14:36:01.180Z,100395.81
2022-11-09T14:39:07.248Z,100411.06
2022-11-09T14:42:18.372Z,100409.34
2022-11-09T14:45:21.764Z,100423.38
2022-11-09T14:48:26.558Z,100425.94
2022-11-09T14:51:36.462Z,100418.75
2022-11-09T14:54:44.817Z,100415.00
2022-11-09T14:57:49.697Z,100420.78
2022-11-09T15:01:09.776Z,100421.00
2022-11-09T15:04:16.873Z,100416.16
2022-11-09T15:07:23.609Z,100422.59
2022-11-09T15:10:29.549Z,100416.75
2022-11-09T15:13:34.940Z,100425.06
2022-11-09T15:16:37.574Z,100424.31
2022-11-09T15:19:51.310Z,100426.53
2022-11-09T15:22:55.958Z,100425.47
2022-11-09T15:25:58.560Z,100424.09
2022-11-09T15:29:01.372Z,100418.19
2022-11-09T15:32:14.046Z,100417.38
2022-11-09T15:35:19.266Z,100420.47
2022-11-09T15:38:31.019Z,100418.34
2022-11-09T15:41:33.660Z,100427.19
2022-11-09T15:44:37.547Z,100421.09
2022-11-09T15:47:40.351Z,100422.50
2022-11-09T15:50:45.449Z,100433.19
2022-11-09T15:53:48.089Z,100430.69
2022-11-09T15:56:51.886Z,100430.47
2022-11-09T15:59:54.595Z,100426.34
2022-11-09T16:02:57.243Z,100433.09
2022-11-09T16:06:01.182Z,100434.06
2022-11-09T16:09:03.995Z,100439.00
2022-11-09T16:12:07.155Z,100442.53
2022-11-09T16:15:10.561Z,100450.63
2022-11-09T16:18:13.509Z,100453.59
2022-11-09T16:21:18.414Z,100455.38
2022-11-09T16:24:21.185Z,100447.78
2022-11-09T16:27:51.717Z,100445.50
2022-11-09T16:30:47.079Z,100442.59
2022-11-09T16:33:49.934Z,100446.28
2022-11-09T16:36:56.864Z,100451.78
2022-11-09T16:40:00.562Z,100448.06
2022-11-09T16:43:03.260Z,100450.63
2022-11-09T16:46:06.357Z,100461.50
2022-11-09T16:49:09.042Z,100458.28
2022-11-09T16:52:13.099Z,100457.75
2022-11-09T16:55:15.882Z,100459.81
2022-11-09T16:58:18.924Z,100466.63
2022-11-09T17:01:23.736Z,100470.13
2022-11-09T17:04:27.292Z,100470.31
2022-11-09T17:07:41.979Z,100497.59
2022-11-09T17:10:47.968Z,100495.88
2022-11-09T17:13:56.038Z,100496.22
2022-11-09T17:16:58.733Z,100491.78
2022-11-09T17:20:04.906Z,100503.44
2022-11-09T17:23:09.106Z,100489.38
2022-11-09T17:26:12.438Z,100481.03
2022-11-09T17:29:15.081Z,100478.56
2022-11-09T17:32:22.346Z,100484.22
2022-11-09T17:35:25.323Z,100486.97
2022-11-09T17:38:29.990Z,100486.81
2022-11-09T17:41:32.649Z,100476.66
2022-11-09T17:44:35.428Z,100494.72
2022-11-09T17:47:38.088Z,100490.50
2022-11-09T17:50:40.700Z,100503.31
2022-11-09T17:53:45.425Z,100500.22
2022-11-09T17:56:48.078Z,100515.06
2022-11-09T17:59:50.737Z,100515.63
2022-11-09T18:02:55.468Z,100529.06
2022-11-09T18:05:58.118Z,100522.00
2022-11-09T18:12:24.877Z,100523.38
2022-11-09T18:15:27.502Z,100532.34
2022-11-09T18:18:30.203Z,100529.03
2022-11-09T18:21:33.447Z,100539.59
2022-11-09T18:24:37.488Z,100536.78
2022-11-09T18:27:40.126Z,100544.84
2022-11-09T18:30:42.737Z,100542.81
2022-11-09T18:33:45.375Z,100541.34
2022-11-09T18:36:47.998Z,100541.09
2022-11-09T18:39:51.963Z,100544.00
2022-11-09T18:42:54.566Z,100541.59
2022-11-09T18:45:58.586Z,100552.59
2022-11-09T18:49:01.237Z,100554.47
2022-11-09T18:52:03.881Z,100558.63
2022-11-09T18:55:08.924Z,100560.09
2022-11-09T18:58:11.689Z,100560.34
2022-11-09T19:01:14.983Z,100564.47
2022-11-09T19:04:18.276Z,100574.22
2022-11-09T19:07:21.147Z,100575.59
2022-11-09T19:10:25.131Z,100584.78
2022-11-09T19:13:27.781Z,100587.72
2022-11-09T19:16:33.901Z,100592.78
2022-11-09T19:19:36.527Z,100598.88
2022-11-09T19:22:39.223Z,100597.34
2022-11-09T19:25:43.227Z,100613.00
2022-11-09T19:28:45.892Z,100602.06
2022-11-09T19:31:48.939Z,100612.03
2022-11-09T19:34:51.641Z,100609.13
2022-11-09T19:37:54.258Z,100616.66
2022-11-09T19:40:58.446Z,100617.44
2022-11-09T19:44:01.119Z,100622.44
2022-11-09T19:47:03.755Z,100623.72
2022-11-09T19:50:07.599Z,100630.00
2022-11-09T19:53:10.221Z,100644.97
2022-11-09T19:56:14.293Z,100646.84
2022-11-09T19:59:18.578Z,100647.50
2022-11-09T20:02:21.270Z,100649.41
2022-11-09T20:05:23.893Z,100655.72
2022-11-09T20:08:26.871Z,100656.13
2022-11-09T20:11:48.737Z,100661.16
2022-11-09T20:14:51.377Z,100660.22
2022-11-09T20:17:53.982Z,100659.28
2022-11-09T20:20:56.600Z,100672.19
2022-11-09T20:23:59.500Z,100684.47
2022-11-09T20:27:03.472Z,100684.13
2022-11-09T20:30:07.160Z,100693.66
2022-11-09T20:33:10.556Z,100699.84
2022-11-09T20:36:13.320Z,100695.75
2022-11-09T20:39:16.047Z,100696.53
2022-11-09T20:42:20.039Z,100703.16
2022-11-09T20:45:22.683Z,100710.19
2022-11-09T20:48:52.033Z,100711.13
2022-11-09T20:51:47.930Z,100707.84
2022-11-09T20:54:50.641Z,100716.44
2022-11-09T20:57:54.615Z,100724.00
2022-11-09T21:01:02.042Z,100718.13
2022-11-09T21:04:05.843Z,100735.19
2022-11-09T21:07:08.824Z,100740.91
2022-11-09T21:10:11.516Z,100741.59
2022-11-09T21:13:16.496Z,100740.13
2022-11-09T21:16:20.578Z,100745.63
2022-11-09T21:19:23.476Z,100754.38
2022-11-09T21:22:46.971Z,100747.66
2022-11-09T21:26:06.917Z,100753.91
2022-11-09T21:29:29.442Z,100754.56
2022-11-09T21:32:32.086Z,100773.16
2022-11-09T21:35:34.693Z,100767.50
2022-11-09T21:38:37.707Z,100787.13
2022-11-09T21:41:40.711Z,100781.78
2022-11-09T21:44:44.764Z,100784.06
2022-11-09T21:47:47.566Z,100802.59
2022-11-09T21:50:50.182Z,100788.53
2022-11-09T21:53:52.869Z,100799.63
2022-11-09T21:56:55.908Z,100808.03
2022-11-09T21:59:59.878Z,100810.06
2022-11-09T22:03:03.489Z,100805.91
2022-11-09T22:06:06.582Z,100810.13
2022-11-09T22:09:14.114Z,100806.53
2022-11-09T22:12:34.308Z,100824.59
2022-11-09T22:15:55.976Z,100823.22
2022-11-09T22:19:16.688Z,100830.56
2022-11-09T22:22:19.321Z,100823.94
2022-11-09T22:25:21.956Z,100840.81
2022-11-09T22:28:24.584Z,100840.50
2022-11-09T22:31:29.082Z,100841.53
2022-11-09T22:34:31.695Z,100839.25
2022-11-09T22:37:34.346Z,100851.09
2022-11-09T22:40:36.986Z,100850.81
2022-11-09T22:43:41.089Z,100863.19
2022-11-09T22:46:45.049Z,100856.44
2022-11-09T22:49:47.676Z,100865.81
2022-11-09T22:52:53.947Z,100866.38
2022-11-09T22:55:58.101Z,100866.06
2022-11-09T22:59:00.721Z,100871.38
2022-11-09T23:02:04.684Z,100880.56
2022-11-09T23:05:08.744Z,100882.81
2022-11-09T23:08:11.442Z,100887.50
2022-11-09T23:11:16.230Z,100886.63
2022-11-09T23:14:39.168Z,100889.53
2022-11-09T23:18:00.575Z,100890.16
2022-11-09T23:21:03.218Z,100904.06
2022-11-09T23:24:27.848Z,100903.63
2022-11-09T23:27:30.561Z,100912.84
2022-11-09T23:30:33.175Z,100914.44
2022-11-09T23:33:38.204Z,100910.56
2022-11-09T23:36:40.817Z,100920.91
2022-11-09T23:39:43.401Z,100930.38
2022-11-09T23:42:46.055Z,100927.91
2022-11-09T23:45:48.665Z,100929.03
2022-11-09T23:48:52.673Z,100935.41
2022-11-09T23:51:55.263Z,100943.50
2022-11-09T23:54:57.869Z,100936.44
2022-11-09T23:58:02.153Z,100942.31
